createdAt,value
2023-04-24T00:03:38.252Z,6.32
2023-04-24T00:11:12.368Z,6.78
2023-04-24T00:18:48.836Z,7.70
2023-04-24T00:26:22.708Z,7.07
2023-04-24T00:33:58.028Z,7.15
2023-04-24T00:41:32.501Z,6.40
2023-04-24T00:49:07.957Z,8.30
2023-04-24T00:56:42.315Z,6.43
2023-04-24T01:04:20.185Z,7.17
2023-04-24T01:11:54.992Z,6.93
2023-04-24T01:19:30.762Z,8.00
2023-04-24T01:27:06.061Z,8.95
2023-04-24T01:34:40.755Z,8.18
2023-04-24T01:42:16.548Z,14.85
2023-04-24T01:49:51.836Z,10.05
2023-04-24T01:57:27.511Z,8.18
2023-04-24T02:05:02.152Z,10.90
2023-04-24T02:12:37.340Z,9.25
2023-04-24T02:20:11.507Z,6.72
2023-04-24T02:27:47.066Z,10.87
2023-04-24T02:35:21.159Z,8.32
2023-04-24T02:42:56.457Z,9.93
2023-04-24T02:50:30.342Z,11.32
2023-04-24T02:58:05.727Z,10.05
2023-04-24T03:05:39.545Z,8.55
2023-04-24T03:13:14.950Z,10.80
2023-04-24T03:20:48.851Z,10.70
2023-04-24T03:28:24.388Z,10.50
2023-04-24T03:35:58.343Z,10.30
2023-04-24T03:43:34.472Z,9.45
2023-04-24T03:51:08.284Z,9.35
2023-04-24T03:58:44.381Z,9.05
2023-04-24T04:14:12.092Z,10.05
2023-04-24T04:21:46.827Z,8.70
2023-04-24T04:29:23.730Z,10.77
2023-04-24T04:37:00.740Z,7.05
2023-04-24T04:44:37.184Z,7.10
2023-04-24T04:52:11.705Z,7.05
2023-04-24T04:59:46.799Z,10.55
2023-04-24T05:07:20.811Z,8.95
2023-04-24T05:14:56.316Z,7.18
2023-04-24T05:22:30.266Z,6.22
2023-04-24T05:30:07.287Z,8.43
2023-04-24T05:37:41.312Z,4.93
2023-04-24T05:45:17.934Z,3.38
2023-04-24T05:52:51.904Z,4.00
2023-04-24T06:00:27.978Z,3.92
2023-04-24T06:08:01.938Z,2.58
2023-04-24T06:15:37.521Z,2.55
2023-04-24T06:23:11.606Z,1.88
2023-04-24T06:30:46.991Z,2.67
2023-04-24T06:38:21.313Z,1.23
2023-04-24T06:45:58.272Z,1.43
2023-04-24T06:53:32.641Z,1.80
2023-04-24T07:01:08.083Z,1.40
2023-04-24T07:08:43.009Z,1.30
2023-04-24T07:16:18.520Z,1.10
2023-04-24T07:23:52.482Z,0.60
2023-04-24T07:31:27.972Z,0.93
2023-04-24T07:39:01.966Z,0.70
2023-04-24T07:46:37.829Z,0.77
2023-04-24T07:54:11.802Z,1.10
2023-04-24T08:01:47.137Z,0.32
2023-04-24T08:09:21.060Z,0.82
2023-04-24T08:16:57.456Z,0.60
2023-04-24T08:24:31.290Z,1.08
2023-04-24T08:32:06.513Z,1.73
2023-04-24T08:39:40.885Z,1.50
2023-04-24T08:47:17.663Z,1.17
2023-04-24T08:54:51.663Z,2.60
2023-04-24T09:02:28.297Z,0.77
2023-04-24T09:10:03.974Z,0.80
2023-04-24T09:17:40.179Z,2.17
2023-04-24T09:25:14.575Z,0.60
2023-04-24T09:32:49.914Z,1.97
2023-04-24T09:40:25.217Z,1.48
2023-04-24T09:48:01.678Z,0.50
2023-04-24T09:55:40.977Z,2.42
2023-04-24T10:03:16.551Z,0.50
2023-04-24T10:10:50.502Z,10.13
2023-04-24T10:18:27.367Z,0.60
2023-04-24T10:26:02.783Z,4.13
2023-04-24T10:33:38.898Z,1.55
2023-04-24T10:41:17.574Z,1.83
2023-04-24T10:48:59.387Z,3.20
2023-04-24T10:56:35.366Z,0.90
2023-04-24T11:04:11.769Z,0.73
2023-04-24T11:11:47.936Z,0.68
2023-04-24T11:19:26.454Z,3.50
2023-04-24T11:27:06.949Z,1.52
2023-04-24T11:34:42.801Z,2.55
2023-04-24T11:42:17.585Z,0.93
2023-04-24T11:49:54.048Z,2.40
2023-04-24T11:57:29.961Z,3.00
2023-04-24T12:05:06.110Z,7.68
2023-04-24T12:12:40.541Z,0.77
2023-04-24T12:20:16.619Z,2.33
2023-04-24T12:27:55.733Z,0.50
2023-04-24T12:35:32.820Z,2.75
2023-04-24T12:43:16.418Z,1.33
2023-04-24T12:50:51.813Z,1.20
2023-04-24T12:58:25.941Z,0.90
2023-04-24T13:06:01.284Z,0.60
2023-04-24T13:13:35.104Z,1.10
2023-04-24T13:21:10.800Z,0.50
2023-04-24T13:28:44.895Z,0.77
2023-04-24T13:36:20.312Z,0.65
2023-04-24T13:43:54.255Z,0.55
2023-04-24T13:51:30.119Z,0.40
2023-04-24T13:59:04.075Z,1.38
2023-04-24T14:06:39.571Z,2.35
2023-04-24T14:14:13.790Z,0.50
2023-04-24T14:21:49.163Z,1.27
2023-04-24T14:29:23.009Z,0.52
2023-04-24T14:36:59.749Z,1.08
2023-04-24T14:44:34.126Z,1.70
2023-04-24T14:52:09.339Z,0.97
2023-04-24T14:59:43.136Z,3.50
2023-04-24T15:07:18.421Z,1.45
2023-04-24T15:14:52.293Z,1.15
2023-04-24T15:22:27.643Z,1.10
2023-04-24T15:30:01.434Z,1.85
2023-04-24T15:37:37.015Z,2.20
2023-04-24T15:45:11.972Z,1.40
2023-04-24T15:52:47.386Z,2.25
2023-04-24T16:00:21.870Z,1.38
2023-04-24T16:07:57.105Z,2.97
2023-04-24T16:15:31.319Z,1.08
2023-04-24T16:23:06.531Z,1.13
2023-04-24T16:30:40.814Z,1.27
2023-04-24T16:38:16.374Z,0.53
2023-04-24T16:45:50.241Z,0.93
2023-04-24T16:53:25.543Z,2.75
2023-04-24T17:00:59.969Z,0.93
2023-04-24T17:08:35.171Z,2.13
2023-04-24T17:23:44.087Z,1.60
2023-04-24T17:31:18.070Z,0.65
2023-04-24T17:38:53.384Z,1.40
2023-04-24T17:46:27.191Z,1.50
2023-04-24T17:54:03.029Z,1.20
2023-04-24T18:01:36.885Z,1.50
2023-04-24T18:09:13.101Z,0.90
2023-04-24T18:16:48.238Z,2.55
2023-04-24T18:24:24.189Z,1.05
2023-04-24T18:31:58.723Z,1.05
2023-04-24T18:39:35.705Z,4.07
2023-04-24T18:47:09.737Z,0.30
2023-04-24T18:54:44.943Z,0.60
2023-04-24T19:02:19.511Z,0.73
2023-04-24T19:09:54.989Z,0.50
2023-04-24T19:17:29.113Z,0.80
2023-04-24T19:25:05.372Z,0.60
2023-04-24T19:32:39.638Z,2.35
2023-04-24T19:40:15.022Z,1.80
2023-04-24T19:47:48.929Z,1.55
2023-04-24T19:55:24.202Z,1.30
2023-04-24T20:02:58.775Z,1.38
2023-04-24T20:10:34.341Z,1.85
2023-04-24T20:18:08.125Z,3.60
2023-04-24T20:25:43.397Z,2.85
2023-04-24T20:33:17.282Z,2.45
2023-04-24T20:48:29.460Z,4.40
2023-04-24T20:56:05.392Z,3.73
2023-04-24T21:03:39.312Z,4.13
2023-04-24T21:11:14.647Z,2.88
2023-04-24T21:18:48.446Z,3.97
2023-04-24T21:26:23.650Z,5.38
2023-04-24T21:33:57.366Z,3.60
2023-04-24T21:41:33.074Z,3.83
2023-04-24T21:49:06.847Z,5.38
2023-04-24T21:56:42.473Z,5.80
2023-04-24T22:04:16.432Z,3.75
2023-04-24T22:11:51.659Z,4.33
2023-04-24T22:19:26.125Z,6.18
2023-04-24T22:27:01.349Z,5.75
2023-04-24T22:34:35.663Z,4.75
2023-04-24T22:42:10.952Z,5.30
2023-04-24T22:49:44.686Z,4.68
2023-04-24T22:57:19.936Z,4.55
2023-04-24T23:04:54.309Z,4.20
2023-04-24T23:12:29.828Z,4.27
2023-04-24T23:20:04.166Z,3.75
2023-04-24T23:27:39.697Z,4.10
2023-04-24T23:35:13.477Z,4.13
2023-04-24T23:42:59.697Z,3.22
2023-04-24T23:50:39.893Z,5.93
2023-04-24T23:58:15.045Z,2.83
